Venice, CA

01:25 PDT le 26 août 2016 (GMT -0700)
Abbot Kinney | | Change Station

Alt. 20 ft 33.99 °N, 118.47 °W | Updated 31 seconds ago

Overcast
Couvert
66.2 ° F
Paraît 66.2 ° F
N
0.0
Vent Variable Vent de ONO
Gusts 0.0 mph

Aujourd'hui
Haut(e) -- | Bas -- ° F
--% Risque de précip.
Hier
Haut(e) -- | Bas -- ° F
Precip. -- pouce
Pression 29.92 pouce
Visibilité 10.0 Miles terrestres
Nuages Couvert 1900 ft
Point de rosée 62 ° F
Humidité 87%
Précipitations 0.00 pouce
Profondeur de la couche neigeuse Non disponible.
6:23 AM 7:26 PM
Dernier quartier, 37% visible
METAR KSMO 260751Z AUTO 00000KT 10SM OVC019 19/15 A2992 RMK AO2 SLP131 T01940150 402390167 TSNO
Pression 29.92 pouce
Visibilité 10.0 Miles terrestres
Nuages Couvert 1900 ft
Point de rosée 62 ° F
Humidité 87%
Précipitations 0.00 pouce
Profondeur de la couche neigeuse Non disponible.
6:23 AM 7:26 PM
Dernier quartier, 37% visible
METAR KSMO 260751Z AUTO 00000KT 10SM OVC019 19/15 A2992 RMK AO2 SLP131 T01940150 402390167 TSNO

10-Day Weather Forecast

Almanac

Astronomie

Aug. 26, 2016 Lever Coucher
Temps réel
Crépuscule civil
Crépuscule nautique
Crépuscule astronomique
Lune
Durée de lumière visible
Longueur du jour
Tomorrow will be .
, % of the Moon is Illuminated

Extrêmes aujourd'hui

State Highs State Lows

Community

WunderPhotos

Upload Photos

1,935,062 Photos téléchargées !

WunderBlog® & News

Nearby

Qualité de l'air

  Qualité de l'air Indice de la qualité de l'air Polluant
Not available.

Épaisseur de neige

Station Depth Altitude

Activité sismique

Ville Distance Mag. Time & Date
Minimum magnitude displayed is 2.5.

Températures des eaux côtières

Lieu Température

Stations

Stations météo à proximité

Emplacement de la station Température Refroidissement éolien Point de rosée Humidité Vent Precip. Alt. Mise à jour Type
                   

Watches & Warnings

There are currently no watches in effect.